createdAt,value
2018-08-10T00:01:58.517Z,18.70
2018-08-10T00:04:27.836Z,18.70
2018-08-10T00:06:57.185Z,18.70
2018-08-10T00:09:26.483Z,18.60
2018-08-10T00:11:55.853Z,18.60
2018-08-10T00:14:25.207Z,18.60
2018-08-10T00:16:54.617Z,18.50
2018-08-10T00:19:23.977Z,18.50
2018-08-10T00:21:53.291Z,18.50
2018-08-10T00:24:22.601Z,18.50
2018-08-10T00:26:51.994Z,18.50
2018-08-10T00:29:21.318Z,18.40
2018-08-10T00:31:50.632Z,18.50
2018-08-10T00:34:19.974Z,18.50
2018-08-10T00:36:49.330Z,18.50
2018-08-10T00:39:18.614Z,18.50
2018-08-10T00:41:47.992Z,18.40
2018-08-10T00:44:17.317Z,18.40
2018-08-10T00:46:46.578Z,18.30
2018-08-10T00:49:15.890Z,18.30
2018-08-10T00:51:45.143Z,18.30
2018-08-10T00:54:14.471Z,18.30
2018-08-10T00:56:43.756Z,18.30
2018-08-10T00:59:13.133Z,18.20
2018-08-10T01:01:42.548Z,18.10
2018-08-10T01:04:11.831Z,18.00
2018-08-10T01:06:41.206Z,17.90
2018-08-10T01:09:12.560Z,17.80
2018-08-10T01:11:41.968Z,17.70
2018-08-10T01:14:11.262Z,17.60
2018-08-10T01:16:40.569Z,17.50
2018-08-10T01:19:09.984Z,17.50
2018-08-10T01:21:39.266Z,17.40
2018-08-10T01:24:08.597Z,17.30
2018-08-10T01:26:38.000Z,17.30
2018-08-10T01:29:07.550Z,17.20
2018-08-10T01:31:36.862Z,17.10
2018-08-10T01:34:06.275Z,17.00
2018-08-10T01:36:35.605Z,17.00
2018-08-10T01:39:07.951Z,17.00
2018-08-10T01:41:37.189Z,16.90
2018-08-10T01:44:07.639Z,16.80
2018-08-10T01:46:36.974Z,16.70
2018-08-10T01:49:07.099Z,16.70
2018-08-10T01:51:36.374Z,16.60
2018-08-10T01:54:05.722Z,16.60
2018-08-10T01:56:35.020Z,16.60
2018-08-10T01:59:04.321Z,16.50
2018-08-10T02:01:33.655Z,16.50
2018-08-10T02:04:02.954Z,16.40
2018-08-10T02:06:32.283Z,16.40
2018-08-10T02:09:01.594Z,16.30
2018-08-10T02:11:30.895Z,16.30
2018-08-10T02:14:00.148Z,16.20
2018-08-10T02:16:29.436Z,16.10
2018-08-10T02:18:58.724Z,16.10
2018-08-10T02:21:28.051Z,16.00
2018-08-10T02:23:57.352Z,16.00
2018-08-10T02:26:26.642Z,16.00
2018-08-10T02:28:55.957Z,16.00
2018-08-10T02:31:25.243Z,16.00
2018-08-10T02:33:54.539Z,15.90
2018-08-10T02:36:23.895Z,15.90
2018-08-10T02:38:53.175Z,15.90
2018-08-10T02:41:22.709Z,15.80
2018-08-10T02:43:53.058Z,15.80
2018-08-10T02:46:22.362Z,15.80
2018-08-10T02:48:52.019Z,15.70
2018-08-10T02:51:21.402Z,15.70
2018-08-10T02:53:50.666Z,15.70
2018-08-10T02:56:19.947Z,15.70
2018-08-10T02:58:49.262Z,15.70
2018-08-10T03:01:18.581Z,15.70
2018-08-10T03:03:47.930Z,15.70
2018-08-10T03:06:17.324Z,15.60
2018-08-10T03:08:46.626Z,15.60
2018-08-10T03:11:15.947Z,15.60
2018-08-10T03:13:45.303Z,15.60
2018-08-10T03:16:14.845Z,15.50
2018-08-10T03:18:44.229Z,15.50
2018-08-10T03:21:13.606Z,15.50
2018-08-10T03:23:42.902Z,15.50
2018-08-10T03:26:12.248Z,15.40
2018-08-10T03:28:41.542Z,15.40
2018-08-10T03:31:10.838Z,15.50
2018-08-10T03:33:40.115Z,15.40
2018-08-10T03:36:09.661Z,15.40
2018-08-10T03:38:38.957Z,15.40
2018-08-10T03:41:08.285Z,15.40
2018-08-10T03:43:37.583Z,15.40
2018-08-10T03:46:06.841Z,15.40
2018-08-10T03:48:36.185Z,15.40
2018-08-10T03:51:05.529Z,15.40
2018-08-10T03:53:34.780Z,15.40
2018-08-10T03:56:04.257Z,15.30
2018-08-10T03:58:33.575Z,15.30
2018-08-10T04:01:02.831Z,15.30
2018-08-10T04:03:32.264Z,15.20
2018-08-10T04:06:01.934Z,15.20
2018-08-10T04:08:31.226Z,15.20
2018-08-10T04:11:00.567Z,15.20
2018-08-10T04:13:30.059Z,15.10
2018-08-10T04:15:59.357Z,15.10
2018-08-10T04:18:28.662Z,15.10
2018-08-10T04:20:57.919Z,15.00
2018-08-10T04:23:27.202Z,15.00
2018-08-10T04:25:56.481Z,15.00
2018-08-10T04:28:25.776Z,15.10
2018-08-10T04:30:55.071Z,15.10
2018-08-10T04:33:24.416Z,15.00
2018-08-10T04:35:53.704Z,15.00
2018-08-10T04:38:23.136Z,15.10
2018-08-10T04:40:52.400Z,15.10
2018-08-10T04:43:21.700Z,15.10
2018-08-10T04:45:51.017Z,15.10
2018-08-10T04:48:20.447Z,15.10
2018-08-10T04:50:49.597Z,15.10
2018-08-10T04:53:18.999Z,15.10
2018-08-10T04:55:48.275Z,15.10
2018-08-10T04:58:17.528Z,15.10
2018-08-10T05:00:46.874Z,15.10
2018-08-10T05:03:16.216Z,15.10
2018-08-10T05:05:45.576Z,15.10
2018-08-10T05:08:14.878Z,15.10
2018-08-10T05:10:44.208Z,15.10
2018-08-10T05:13:13.606Z,15.00
2018-08-10T05:15:43.058Z,15.10
2018-08-10T05:18:12.687Z,15.10
2018-08-10T05:20:42.060Z,15.20
2018-08-10T05:23:11.456Z,15.20
2018-08-10T05:25:40.793Z,15.30
2018-08-10T05:28:10.178Z,15.30
2018-08-10T05:30:39.518Z,15.40
2018-08-10T05:33:08.822Z,16.20
2018-08-10T05:35:38.134Z,17.60
2018-08-10T05:38:07.752Z,19.00
2018-08-10T05:40:37.054Z,20.30
2018-08-10T05:43:06.334Z,21.10
2018-08-10T05:45:35.633Z,21.80
2018-08-10T05:48:04.991Z,22.20
2018-08-10T05:50:34.332Z,22.90
2018-08-10T05:53:03.626Z,23.30
2018-08-10T05:55:32.989Z,23.60
2018-08-10T05:58:02.263Z,23.60
2018-08-10T06:00:31.596Z,23.70
2018-08-10T06:03:00.966Z,23.60
2018-08-10T06:05:30.281Z,23.60
2018-08-10T06:07:59.652Z,24.10
2018-08-10T06:10:29.141Z,24.20
2018-08-10T06:12:58.503Z,23.80
2018-08-10T06:15:27.823Z,22.60
2018-08-10T06:17:57.107Z,21.50
2018-08-10T06:20:26.447Z,20.40
2018-08-10T06:22:55.986Z,19.60
2018-08-10T06:25:25.227Z,19.50
2018-08-10T06:27:54.601Z,19.50
2018-08-10T06:30:23.980Z,19.80
2018-08-10T06:32:53.322Z,19.30
2018-08-10T06:35:23.147Z,18.90
2018-08-10T06:37:52.576Z,18.60
2018-08-10T06:40:21.892Z,18.40
2018-08-10T06:42:51.293Z,18.20
2018-08-10T06:45:21.043Z,18.20
2018-08-10T06:47:50.240Z,18.20
2018-08-10T06:50:19.628Z,18.30
2018-08-10T06:52:48.960Z,18.50
2018-08-10T06:55:18.263Z,18.70
2018-08-10T06:57:47.770Z,18.80
2018-08-10T07:00:17.130Z,18.80
2018-08-10T07:02:46.454Z,18.80
2018-08-10T07:05:15.819Z,18.70
2018-08-10T07:07:45.206Z,18.80
2018-08-10T07:10:14.504Z,18.70
2018-08-10T07:12:43.854Z,18.90
2018-08-10T07:15:13.091Z,18.90
2018-08-10T07:17:42.497Z,19.00
2018-08-10T07:20:11.780Z,19.10
2018-08-10T07:22:41.169Z,19.10
2018-08-10T07:25:10.511Z,19.00
2018-08-10T07:27:39.847Z,19.00
2018-08-10T07:30:09.166Z,19.10
2018-08-10T07:32:38.525Z,19.00
2018-08-10T07:35:07.823Z,19.10
2018-08-10T07:37:37.182Z,19.20
2018-08-10T07:40:06.505Z,19.20
2018-08-10T07:42:36.494Z,19.30
2018-08-10T07:45:06.315Z,19.20
2018-08-10T07:47:35.629Z,18.80
2018-08-10T07:50:05.347Z,18.80
2018-08-10T07:52:34.651Z,19.00
2018-08-10T07:56:28.110Z,19.30
2018-08-10T07:58:57.463Z,19.60
2018-08-10T08:01:26.822Z,19.90
2018-08-10T08:03:56.153Z,20.10
2018-08-10T08:06:25.521Z,20.20
2018-08-10T08:08:54.854Z,20.30
2018-08-10T08:11:24.238Z,20.30
2018-08-10T08:13:53.649Z,20.30
2018-08-10T08:16:23.113Z,20.40
2018-08-10T08:18:52.459Z,20.50
2018-08-10T08:21:21.790Z,20.50
2018-08-10T08:23:51.170Z,20.40
2018-08-10T08:26:20.591Z,20.50
2018-08-10T08:28:50.009Z,20.70
2018-08-10T08:31:19.305Z,20.70
2018-08-10T08:34:02.260Z,20.70
2018-08-10T08:36:31.598Z,20.60
2018-08-10T08:42:47.749Z,21.10
2018-08-10T08:45:58.811Z,21.10
2018-08-10T08:48:29.046Z,21.10
2018-08-10T08:50:59.922Z,21.30
2018-08-10T08:53:29.383Z,21.30
2018-08-10T08:56:02.418Z,21.30
2018-08-10T08:58:32.248Z,21.40
2018-08-10T09:01:01.559Z,21.50
2018-08-10T09:03:51.540Z,21.70
2018-08-10T09:06:20.814Z,21.80
2018-08-10T09:15:05.685Z,21.90
2018-08-10T09:17:35.142Z,21.90
2018-08-10T09:20:06.083Z,22.10
2018-08-10T09:22:35.590Z,22.20
2018-08-10T09:25:08.045Z,22.30
2018-08-10T09:27:37.433Z,22.30
2018-08-10T09:30:10.083Z,22.40
2018-08-10T09:32:39.813Z,22.50
2018-08-10T09:35:10.558Z,22.30
2018-08-10T09:37:39.876Z,22.40
2018-08-10T09:40:16.123Z,22.10
2018-08-10T09:42:45.961Z,22.10
2018-08-10T09:45:15.999Z,22.00
2018-08-10T09:47:46.502Z,22.10
2018-08-10T09:50:16.718Z,22.10
2018-08-10T09:52:54.974Z,22.00
2018-08-10T09:55:43.710Z,22.20
2018-08-10T09:58:18.156Z,22.30
2018-08-10T10:00:52.706Z,22.30
2018-08-10T10:03:24.155Z,22.30
2018-08-10T10:05:54.742Z,22.20
2018-08-10T10:08:24.555Z,22.40
2018-08-10T10:10:53.895Z,22.40
2018-08-10T10:13:23.248Z,22.20
2018-08-10T10:15:52.571Z,21.80
2018-08-10T10:18:21.871Z,21.70
2018-08-10T10:20:51.409Z,21.70
2018-08-10T10:23:20.781Z,21.80
2018-08-10T10:25:50.264Z,22.00
2018-08-10T10:28:19.589Z,22.20
2018-08-10T10:30:48.957Z,22.30
2018-08-10T10:33:18.333Z,22.50
2018-08-10T10:35:47.653Z,22.80
2018-08-10T10:38:16.972Z,22.80
2018-08-10T10:40:46.255Z,23.00
2018-08-10T10:43:15.633Z,23.40
2018-08-10T10:45:45.016Z,23.70
2018-08-10T10:48:14.403Z,23.50
2018-08-10T10:50:43.827Z,23.60
2018-08-10T10:53:13.164Z,23.60
2018-08-10T10:55:42.549Z,23.50
2018-08-10T10:58:11.942Z,23.50
2018-08-10T11:00:41.339Z,23.30
2018-08-10T11:03:10.653Z,23.10
2018-08-10T11:05:40.076Z,23.00
2018-08-10T11:08:09.450Z,23.10
2018-08-10T11:10:38.742Z,23.20
2018-08-10T11:13:08.246Z,23.30
2018-08-10T11:15:37.566Z,23.20
2018-08-10T11:18:06.972Z,23.20
2018-08-10T11:20:36.246Z,23.00
2018-08-10T11:23:05.555Z,23.00
2018-08-10T11:25:34.890Z,23.10
2018-08-10T11:28:04.258Z,23.30
2018-08-10T11:30:33.629Z,23.60
2018-08-10T11:33:02.979Z,23.70
2018-08-10T11:35:32.277Z,24.00
2018-08-10T11:38:01.597Z,23.90
2018-08-10T11:40:30.865Z,23.70
2018-08-10T11:43:00.234Z,23.80
2018-08-10T11:45:29.592Z,24.10
2018-08-10T11:47:59.302Z,23.90
2018-08-10T11:50:28.630Z,24.00
2018-08-10T11:52:58.206Z,23.80
2018-08-10T11:57:56.643Z,23.90
2018-08-10T12:00:26.118Z,24.00
2018-08-10T12:02:55.418Z,24.60
2018-08-10T12:05:24.769Z,25.20
2018-08-10T12:07:54.179Z,25.50
2018-08-10T12:10:23.449Z,25.70
2018-08-10T12:12:52.913Z,25.50
2018-08-10T12:15:22.130Z,25.60
2018-08-10T12:17:51.450Z,25.50
2018-08-10T12:20:20.854Z,25.40
2018-08-10T12:22:50.202Z,25.30
2018-08-10T12:25:19.449Z,25.20
2018-08-10T12:27:48.896Z,25.20
2018-08-10T12:30:18.341Z,25.10
2018-08-10T12:32:47.703Z,25.00
2018-08-10T12:35:17.054Z,24.90
2018-08-10T12:37:46.421Z,24.80
2018-08-10T12:40:15.737Z,24.60
2018-08-10T12:42:45.014Z,24.60
2018-08-10T12:45:14.337Z,24.70
2018-08-10T12:47:43.753Z,25.00
2018-08-10T12:50:12.985Z,25.10
2018-08-10T12:52:42.234Z,25.10
2018-08-10T12:55:12.271Z,25.10
2018-08-10T12:57:41.628Z,25.20
2018-08-10T13:00:12.515Z,25.30
2018-08-10T13:02:42.600Z,25.20
2018-08-10T13:05:11.821Z,24.80
2018-08-10T13:07:41.182Z,24.90
2018-08-10T13:10:12.136Z,25.10
2018-08-10T13:12:41.502Z,25.20
2018-08-10T13:15:12.592Z,25.50
2018-08-10T13:17:41.917Z,25.70
2018-08-10T13:20:13.062Z,25.80
2018-08-10T13:22:42.430Z,25.80
2018-08-10T13:25:12.092Z,25.80
2018-08-10T13:27:41.450Z,25.40
2018-08-10T13:30:12.201Z,25.00
2018-08-10T13:32:41.582Z,24.90
2018-08-10T13:35:11.112Z,25.10
2018-08-10T13:37:40.473Z,25.30
2018-08-10T13:40:10.020Z,25.30
2018-08-10T13:42:39.304Z,25.20
2018-08-10T13:45:11.995Z,27.10
2018-08-10T13:47:41.446Z,25.10
2018-08-10T13:57:12.230Z,25.10
2018-08-10T13:59:41.550Z,24.90
2018-08-10T14:02:10.970Z,24.60
2018-08-10T14:04:40.254Z,24.50
2018-08-10T14:07:09.605Z,24.70
2018-08-10T14:09:38.930Z,24.70
2018-08-10T14:12:08.368Z,24.80
2018-08-10T14:14:37.732Z,24.90
2018-08-10T14:17:07.056Z,24.70
2018-08-10T14:19:36.381Z,24.40
2018-08-10T14:22:05.984Z,24.30
2018-08-10T14:24:35.335Z,24.30
2018-08-10T14:27:04.681Z,24.40
2018-08-10T14:29:34.086Z,24.50
2018-08-10T14:32:03.393Z,24.60
2018-08-10T14:37:01.805Z,24.40
2018-08-10T14:39:31.197Z,24.20
2018-08-10T14:42:00.483Z,24.10
2018-08-10T14:44:29.895Z,24.00
2018-08-10T14:46:59.245Z,24.20
2018-08-10T14:49:28.571Z,24.40
2018-08-10T14:51:58.037Z,24.30
2018-08-10T14:54:27.421Z,24.40
2018-08-10T14:56:56.754Z,24.40
2018-08-10T14:59:26.182Z,24.40
2018-08-10T15:01:55.551Z,24.40
2018-08-10T15:04:24.878Z,24.40
2018-08-10T15:06:54.229Z,24.20
2018-08-10T15:09:23.514Z,24.40
2018-08-10T15:11:52.897Z,24.60
2018-08-10T15:14:22.304Z,24.70
2018-08-10T15:16:51.634Z,24.40
2018-08-10T15:19:21.016Z,24.10
2018-08-10T15:21:50.416Z,24.00
2018-08-10T15:24:19.800Z,24.10
2018-08-10T15:26:49.153Z,24.20
2018-08-10T15:29:18.542Z,24.30
2018-08-10T15:31:47.964Z,24.40
2018-08-10T15:34:17.368Z,24.50
2018-08-10T15:36:46.776Z,24.50
2018-08-10T15:39:16.259Z,24.50
2018-08-10T15:41:45.713Z,24.40
2018-08-10T15:44:15.021Z,24.30
2018-08-10T15:46:44.383Z,24.40
2018-08-10T15:49:13.722Z,24.40
2018-08-10T15:51:43.082Z,24.20
2018-08-10T15:56:41.825Z,23.90
2018-08-10T15:59:11.275Z,23.90
2018-08-10T16:01:40.695Z,24.00
2018-08-10T16:04:10.035Z,24.20
2018-08-10T16:06:39.371Z,24.30
2018-08-10T16:09:11.337Z,24.60
2018-08-10T16:11:40.703Z,24.60
2018-08-10T16:14:10.921Z,24.40
2018-08-10T16:16:40.241Z,24.20
2018-08-10T16:19:09.570Z,24.20
2018-08-10T16:21:38.910Z,24.10
2018-08-10T16:24:08.530Z,24.00
2018-08-10T16:26:37.808Z,24.00
2018-08-10T16:29:07.156Z,24.10
2018-08-10T16:31:36.401Z,24.20
2018-08-10T16:34:05.690Z,24.40
2018-08-10T16:36:35.034Z,24.40
2018-08-10T16:39:06.158Z,24.40
2018-08-10T16:41:35.499Z,24.50
2018-08-10T16:44:04.842Z,24.50
2018-08-10T16:46:34.143Z,24.50
2018-08-10T16:49:03.542Z,24.40
2018-08-10T16:51:32.909Z,24.20
2018-08-10T16:54:02.433Z,24.00
2018-08-10T16:59:00.991Z,23.60
2018-08-10T17:01:30.322Z,23.30
2018-08-10T17:03:59.993Z,23.20
2018-08-10T17:06:29.309Z,23.10
2018-08-10T17:08:58.639Z,23.30
2018-08-10T17:11:28.002Z,23.60
2018-08-10T17:13:57.450Z,24.30
2018-08-10T17:16:26.845Z,24.70
2018-08-10T17:18:56.241Z,24.90
2018-08-10T17:21:25.670Z,25.10
2018-08-10T17:23:55.015Z,25.30
2018-08-10T17:26:24.418Z,25.60
2018-08-10T17:28:53.854Z,26.00
2018-08-10T17:31:23.172Z,26.40
2018-08-10T17:33:52.631Z,26.40
2018-08-10T17:36:21.909Z,26.50
2018-08-10T17:38:51.230Z,26.30
2018-08-10T17:41:20.661Z,26.20
2018-08-10T17:43:50.006Z,26.20
2018-08-10T17:46:19.276Z,26.20
2018-08-10T17:48:48.650Z,26.20
2018-08-10T17:51:17.971Z,26.00
2018-08-10T17:53:47.447Z,25.60
2018-08-10T17:56:16.724Z,25.10
2018-08-10T17:58:46.090Z,24.60
2018-08-10T18:03:44.694Z,23.70
2018-08-10T18:06:14.050Z,23.50
2018-08-10T18:08:43.369Z,23.20
2018-08-10T18:11:12.662Z,23.10
2018-08-10T18:13:42.051Z,22.90
2018-08-10T18:16:11.621Z,22.70
2018-08-10T18:18:41.059Z,22.50
2018-08-10T18:21:10.610Z,22.50
2018-08-10T18:23:40.051Z,22.30
2018-08-10T18:26:09.566Z,22.10
2018-08-10T18:28:39.129Z,22.00
2018-08-10T18:31:08.614Z,21.90
2018-08-10T18:33:38.046Z,21.70
2018-08-10T18:36:07.397Z,21.70
2018-08-10T18:38:36.771Z,21.70
2018-08-10T18:41:06.215Z,21.50
2018-08-10T18:43:35.585Z,21.40
2018-08-10T18:46:04.961Z,21.20
2018-08-10T18:48:34.401Z,21.10
2018-08-10T18:51:03.794Z,21.00
2018-08-10T18:53:33.134Z,20.90
2018-08-10T18:56:02.566Z,20.70
2018-08-10T18:58:31.878Z,20.60
2018-08-10T19:01:01.226Z,20.50
2018-08-10T19:03:30.550Z,20.40
2018-08-10T19:06:00.018Z,20.30
2018-08-10T19:08:29.358Z,20.20
2018-08-10T19:10:58.767Z,20.20
2018-08-10T19:13:28.053Z,20.10
2018-08-10T19:15:57.495Z,19.90
2018-08-10T19:18:26.817Z,19.90
2018-08-10T19:20:56.211Z,19.80
2018-08-10T19:23:25.590Z,19.80
2018-08-10T19:25:54.978Z,19.70
2018-08-10T19:28:24.324Z,19.70
2018-08-10T19:30:53.652Z,19.60
2018-08-10T19:33:22.968Z,19.50
2018-08-10T19:35:52.230Z,19.50
2018-08-10T19:38:21.562Z,19.40
2018-08-10T19:40:51.120Z,19.40
2018-08-10T19:43:20.541Z,19.40
2018-08-10T19:45:49.889Z,19.30
2018-08-10T19:48:19.269Z,19.30
2018-08-10T19:50:48.618Z,19.30
2018-08-10T19:53:17.951Z,19.20
2018-08-10T19:55:47.325Z,19.20
2018-08-10T19:58:16.665Z,19.20
2018-08-10T20:00:46.112Z,19.10
2018-08-10T20:03:15.475Z,19.00
2018-08-10T20:05:44.814Z,18.90
2018-08-10T20:08:14.316Z,18.90
2018-08-10T20:10:43.663Z,18.80
2018-08-10T20:13:14.215Z,18.70
2018-08-10T20:15:43.621Z,18.60
2018-08-10T20:18:12.731Z,18.50
2018-08-10T20:20:42.281Z,18.40
2018-08-10T20:23:11.668Z,18.30
2018-08-10T20:25:41.086Z,18.20
2018-08-10T20:28:10.469Z,18.20
2018-08-10T20:30:39.807Z,18.10
2018-08-10T20:33:09.165Z,18.00
2018-08-10T20:35:38.416Z,18.00
2018-08-10T20:38:07.717Z,17.90
2018-08-10T20:40:37.115Z,17.90
2018-08-10T20:43:06.404Z,17.80
2018-08-10T20:45:35.834Z,17.70
2018-08-10T20:48:05.177Z,17.60
2018-08-10T20:50:34.556Z,17.60
2018-08-10T20:53:03.777Z,17.50
2018-08-10T20:55:33.098Z,17.50
2018-08-10T20:58:02.425Z,17.40
2018-08-10T21:00:31.743Z,17.40
2018-08-10T21:03:01.139Z,17.40
2018-08-10T21:05:30.482Z,17.40
2018-08-10T21:07:59.820Z,17.30
2018-08-10T21:10:29.174Z,17.20
2018-08-10T21:12:58.493Z,17.20
2018-08-10T21:15:27.797Z,17.10
2018-08-10T21:17:57.118Z,17.00
2018-08-10T21:20:26.412Z,16.90
2018-08-10T21:22:55.774Z,16.90
2018-08-10T21:25:25.050Z,16.80
2018-08-10T21:27:54.351Z,16.70
2018-08-10T21:30:23.690Z,16.70
2018-08-10T21:32:53.031Z,16.70
2018-08-10T21:35:22.518Z,16.60
2018-08-10T21:37:51.819Z,16.50
2018-08-10T21:40:21.179Z,16.50
2018-08-10T21:42:50.529Z,16.50
2018-08-10T21:45:19.863Z,16.50
2018-08-10T21:47:49.452Z,16.40
2018-08-10T21:50:18.855Z,16.30
2018-08-10T21:52:48.287Z,16.30
2018-08-10T21:55:17.625Z,16.30
2018-08-10T21:57:47.033Z,16.20
2018-08-10T22:00:39.707Z,16.10
2018-08-10T22:03:10.522Z,16.10
2018-08-10T22:05:40.142Z,16.00
2018-08-10T22:08:09.481Z,16.10
2018-08-10T22:10:38.982Z,16.00
2018-08-10T22:13:11.809Z,16.00
2018-08-10T22:15:46.758Z,16.00
2018-08-10T22:18:21.175Z,15.90
2018-08-10T22:20:50.579Z,15.90
2018-08-10T22:23:20.418Z,15.90
2018-08-10T22:25:49.914Z,15.90
2018-08-10T22:28:19.261Z,15.90
2018-08-10T22:30:48.682Z,15.80
2018-08-10T22:33:18.029Z,15.80
2018-08-10T22:35:47.330Z,15.70
2018-08-10T22:38:16.700Z,15.80
2018-08-10T22:40:46.032Z,15.60
2018-08-10T22:43:15.381Z,15.60
2018-08-10T22:45:44.755Z,15.70
2018-08-10T22:48:14.032Z,15.70
2018-08-10T22:50:43.374Z,15.70
2018-08-10T22:53:12.669Z,15.60
2018-08-10T22:55:41.950Z,15.60
2018-08-10T22:58:11.215Z,15.50
2018-08-10T23:00:41.028Z,15.50
2018-08-10T23:03:10.369Z,15.60
2018-08-10T23:05:39.649Z,15.50
2018-08-10T23:08:08.976Z,15.50
2018-08-10T23:10:38.338Z,15.50
2018-08-10T23:15:36.629Z,15.30
2018-08-10T23:18:06.162Z,15.30
2018-08-10T23:20:35.462Z,15.30
2018-08-10T23:23:04.759Z,15.30
2018-08-10T23:25:34.021Z,15.30
2018-08-10T23:28:03.361Z,15.30
2018-08-10T23:30:32.777Z,15.30
2018-08-10T23:33:01.980Z,15.30
2018-08-10T23:35:31.253Z,15.40
2018-08-10T23:38:00.571Z,15.40
2018-08-10T23:40:30.277Z,15.40
2018-08-10T23:42:59.707Z,15.50
2018-08-10T23:45:28.980Z,15.50
2018-08-10T23:47:58.266Z,15.60
2018-08-10T23:50:27.621Z,15.60
2018-08-10T23:52:56.960Z,15.60
2018-08-10T23:55:26.335Z,15.60
2018-08-10T23:57:55.676Z,15.70
